createdAt,value
2018-03-15T00:01:25.500Z,36.10
2018-03-15T00:03:52.999Z,39.60
2018-03-15T00:06:21.230Z,42.50
2018-03-15T00:08:48.723Z,34.10
2018-03-15T00:11:16.199Z,34.13
2018-03-15T00:13:44.441Z,39.63
2018-03-15T00:16:11.899Z,37.00
2018-03-15T00:18:39.420Z,37.00
2018-03-15T00:21:06.878Z,37.33
2018-03-15T00:23:34.346Z,44.40
2018-03-15T00:26:01.822Z,35.37
2018-03-15T00:28:29.287Z,36.77
2018-03-15T00:30:56.850Z,34.73
2018-03-15T00:33:25.095Z,42.43
2018-03-15T00:35:52.560Z,37.63
2018-03-15T00:38:20.014Z,45.43
2018-03-15T00:40:48.328Z,42.47
2018-03-15T00:43:16.636Z,36.93
2018-03-15T00:45:44.922Z,44.17
2018-03-15T00:48:12.416Z,37.27
2018-03-15T00:50:39.875Z,40.37
2018-03-15T00:53:07.332Z,38.37
2018-03-15T00:55:34.807Z,41.77
2018-03-15T00:58:03.035Z,38.20
2018-03-15T01:00:30.499Z,34.23
2018-03-15T01:02:57.958Z,39.83
2018-03-15T01:05:25.423Z,39.67
2018-03-15T01:07:52.889Z,45.57
2018-03-15T01:10:20.354Z,37.30
2018-03-15T01:12:47.812Z,37.67
2018-03-15T01:15:15.272Z,37.60
2018-03-15T01:17:42.739Z,42.13
2018-03-15T01:20:10.971Z,37.53
2018-03-15T01:22:38.441Z,33.20
2018-03-15T01:25:05.931Z,42.33
2018-03-15T01:27:34.163Z,39.27
2018-03-15T01:30:01.637Z,36.60
2018-03-15T01:32:29.110Z,36.47
2018-03-15T01:34:57.342Z,40.60
2018-03-15T01:37:24.805Z,35.83
2018-03-15T01:39:52.283Z,34.37
2018-03-15T01:42:19.757Z,36.83
2018-03-15T01:44:47.211Z,40.27
2018-03-15T01:47:14.687Z,36.90
2018-03-15T01:49:43.916Z,39.13
2018-03-15T01:52:11.406Z,37.47
2018-03-15T01:54:38.874Z,47.90
2018-03-15T01:57:06.344Z,44.60
2018-03-15T01:59:34.566Z,38.80
2018-03-15T02:02:02.035Z,37.03
2018-03-15T02:04:29.506Z,42.00
2018-03-15T02:06:56.971Z,42.43
2018-03-15T02:09:24.446Z,36.97
2018-03-15T02:11:52.679Z,40.50
2018-03-15T02:14:22.642Z,44.07
2018-03-15T02:16:51.022Z,34.90
2018-03-15T02:19:19.247Z,34.60
2018-03-15T02:21:46.728Z,38.10
2018-03-15T02:24:14.190Z,39.20
2018-03-15T02:26:41.668Z,38.90
2018-03-15T02:29:09.905Z,35.57
2018-03-15T02:31:37.389Z,36.10
2018-03-15T02:34:04.852Z,39.87
2018-03-15T02:36:33.095Z,33.70
2018-03-15T02:39:00.562Z,37.70
2018-03-15T02:41:28.026Z,37.73
2018-03-15T02:43:55.479Z,42.50
2018-03-15T02:46:22.950Z,39.93
2018-03-15T02:48:51.197Z,38.80
2018-03-15T02:51:18.673Z,39.27
2018-03-15T02:53:46.142Z,43.83
2018-03-15T02:56:14.387Z,39.20
2018-03-15T02:58:41.864Z,37.93
2018-03-15T03:01:09.351Z,37.47
2018-03-15T03:03:37.559Z,34.30
2018-03-15T03:06:05.042Z,35.43
2018-03-15T03:08:32.576Z,37.43
2018-03-15T03:11:00.043Z,36.50
2018-03-15T03:13:27.508Z,35.60
2018-03-15T03:15:54.996Z,45.83
2018-03-15T03:18:25.989Z,38.57
2018-03-15T03:20:53.450Z,37.37
2018-03-15T03:23:20.915Z,38.67
2018-03-15T03:25:48.382Z,33.90
2018-03-15T03:28:15.857Z,32.27
2018-03-15T03:30:44.103Z,40.97
2018-03-15T03:33:11.575Z,41.00
2018-03-15T03:35:39.043Z,36.13
2018-03-15T03:38:07.358Z,43.43
2018-03-15T03:40:34.814Z,36.47
2018-03-15T03:43:02.318Z,34.93
2018-03-15T03:45:29.795Z,45.27
2018-03-15T03:47:58.039Z,34.67
2018-03-15T03:50:25.515Z,36.00
2018-03-15T03:52:53.005Z,35.93
2018-03-15T03:55:20.470Z,36.47
2018-03-15T03:57:47.926Z,37.27
2018-03-15T04:00:15.410Z,43.70
2018-03-15T04:02:42.874Z,42.97
2018-03-15T04:05:10.355Z,33.23
2018-03-15T04:07:37.839Z,36.97
2018-03-15T04:10:06.089Z,33.77
2018-03-15T04:12:34.086Z,31.80
2018-03-15T04:15:01.594Z,37.90
2018-03-15T04:17:29.065Z,32.50
2018-03-15T04:19:56.631Z,38.77
2018-03-15T04:22:24.105Z,37.37
2018-03-15T04:24:52.338Z,36.20
2018-03-15T04:27:19.806Z,34.50
2018-03-15T04:29:47.291Z,36.87
2018-03-15T04:32:15.521Z,31.27
2018-03-15T04:34:42.998Z,32.30
2018-03-15T04:37:11.251Z,31.33
2018-03-15T04:39:38.724Z,37.47
2018-03-15T04:42:06.206Z,32.87
2018-03-15T04:44:34.963Z,33.77
2018-03-15T04:47:02.455Z,41.37
2018-03-15T04:49:30.708Z,34.43
2018-03-15T04:51:58.179Z,35.30
2018-03-15T04:54:25.660Z,34.03
2018-03-15T04:56:53.131Z,38.67
2018-03-15T04:59:20.620Z,38.17
2018-03-15T05:01:48.121Z,35.47
2018-03-15T05:04:15.623Z,38.83
2018-03-15T05:06:43.091Z,33.07
2018-03-15T05:09:11.223Z,31.43
2018-03-15T05:11:38.707Z,33.63
2018-03-15T05:14:06.174Z,34.57
2018-03-15T05:16:34.124Z,33.97
2018-03-15T05:19:01.600Z,36.70
2018-03-15T05:21:29.079Z,34.50
2018-03-15T05:23:56.563Z,34.13
2018-03-15T05:26:24.794Z,35.60
2018-03-15T05:28:52.285Z,31.60
2018-03-15T05:33:54.513Z,42.57
2018-03-15T05:36:21.984Z,43.73
2018-03-15T05:38:49.455Z,30.87
2018-03-15T05:41:16.934Z,35.87
2018-03-15T05:43:44.394Z,34.00
2018-03-15T05:46:12.641Z,32.33
2018-03-15T05:48:40.120Z,33.70
2018-03-15T05:51:07.588Z,33.63
2018-03-15T05:53:35.042Z,36.27
2018-03-15T05:56:03.371Z,29.10
2018-03-15T05:58:30.904Z,32.97
2018-03-15T06:00:58.375Z,33.60
2018-03-15T06:03:25.926Z,34.50
2018-03-15T06:05:53.384Z,33.80
2018-03-15T06:08:20.865Z,36.73
2018-03-15T06:10:48.345Z,33.30
2018-03-15T06:13:15.822Z,33.77
2018-03-15T06:15:44.078Z,32.23
2018-03-15T06:18:11.544Z,31.13
2018-03-15T06:20:39.004Z,33.17
2018-03-15T06:23:06.476Z,33.23
2018-03-15T06:25:34.725Z,35.27
2018-03-15T06:28:02.967Z,33.90
2018-03-15T06:30:30.466Z,33.90
2018-03-15T06:32:58.791Z,34.60
2018-03-15T06:35:26.259Z,30.00
2018-03-15T06:37:53.751Z,32.77
2018-03-15T06:40:21.239Z,30.70
2018-03-15T06:42:48.719Z,35.50
2018-03-15T06:45:16.208Z,37.73
2018-03-15T06:47:43.734Z,32.43
2018-03-15T06:50:12.095Z,29.07
2018-03-15T06:52:39.575Z,32.70
2018-03-15T06:55:07.058Z,31.53
2018-03-15T06:57:34.562Z,31.83
2018-03-15T07:00:02.044Z,31.37
2018-03-15T07:02:32.368Z,30.67
2018-03-15T07:05:00.887Z,32.70
2018-03-15T07:07:29.859Z,30.17
2018-03-15T07:09:57.346Z,33.30
2018-03-15T07:12:24.821Z,31.27
2018-03-15T07:14:53.063Z,30.77
2018-03-15T07:17:20.547Z,32.00
2018-03-15T07:19:49.782Z,30.40
2018-03-15T07:22:17.259Z,29.23
2018-03-15T07:24:45.015Z,30.30
2018-03-15T07:27:12.687Z,33.77
2018-03-15T07:29:40.906Z,29.63
2018-03-15T07:32:09.216Z,31.23
2018-03-15T07:34:36.691Z,29.27
2018-03-15T07:37:04.152Z,34.53
2018-03-15T07:39:31.623Z,35.97
2018-03-15T07:42:00.314Z,26.80
2018-03-15T07:44:27.888Z,30.70
2018-03-15T07:46:55.366Z,25.43
2018-03-15T07:49:23.602Z,34.57
2018-03-15T07:51:51.072Z,28.13
2018-03-15T07:54:18.534Z,23.80
2018-03-15T07:56:46.763Z,33.23
2018-03-15T07:59:14.234Z,27.67
2018-03-15T08:01:41.712Z,29.50
2018-03-15T08:04:09.191Z,31.20
2018-03-15T08:06:37.443Z,25.50
2018-03-15T08:09:04.912Z,32.33
2018-03-15T08:11:34.005Z,24.73
2018-03-15T08:14:01.663Z,23.07
2018-03-15T08:16:29.127Z,23.80
2018-03-15T08:18:56.601Z,25.93
2018-03-15T08:21:24.842Z,26.63
2018-03-15T08:23:52.326Z,23.60
2018-03-15T08:26:20.548Z,23.80
2018-03-15T08:28:48.028Z,20.03
2018-03-15T08:31:15.492Z,24.40
2018-03-15T08:33:42.961Z,27.10
2018-03-15T08:36:10.434Z,25.27
2018-03-15T08:38:42.127Z,21.83
2018-03-15T08:41:13.265Z,22.83
2018-03-15T08:43:40.836Z,22.20
2018-03-15T08:46:08.295Z,32.63
2018-03-15T08:48:35.770Z,23.10
2018-03-15T08:51:03.236Z,24.27
2018-03-15T08:53:30.791Z,25.27
2018-03-15T08:55:58.294Z,30.63
2018-03-15T08:58:25.762Z,22.47
2018-03-15T09:00:53.253Z,23.03
2018-03-15T09:03:20.723Z,21.80
2018-03-15T09:05:48.404Z,23.63
2018-03-15T09:08:15.751Z,24.90
2018-03-15T09:10:43.987Z,23.13
2018-03-15T09:13:11.680Z,25.47
2018-03-15T09:15:39.134Z,26.97
2018-03-15T09:18:06.609Z,25.03
2018-03-15T09:20:34.844Z,28.00
2018-03-15T09:23:02.308Z,24.60
2018-03-15T09:25:29.790Z,22.73
2018-03-15T09:27:58.010Z,22.73
2018-03-15T09:30:25.482Z,26.70
2018-03-15T09:32:52.971Z,25.70
2018-03-15T09:35:20.435Z,23.87
2018-03-15T09:37:48.679Z,24.23
2018-03-15T09:40:16.791Z,21.93
2018-03-15T09:42:45.051Z,25.10
2018-03-15T09:45:13.327Z,23.03
2018-03-15T09:47:41.575Z,26.60
2018-03-15T09:50:09.047Z,24.23
2018-03-15T09:52:36.531Z,29.87
2018-03-15T09:55:04.787Z,23.80
2018-03-15T09:57:32.346Z,22.17
2018-03-15T09:59:59.812Z,24.50
2018-03-15T10:02:28.062Z,21.70
2018-03-15T10:04:55.531Z,22.77
2018-03-15T10:07:23.007Z,24.17
2018-03-15T10:09:51.243Z,27.13
2018-03-15T10:12:18.731Z,22.13
2018-03-15T10:14:46.991Z,22.70
2018-03-15T10:17:14.467Z,25.20
2018-03-15T10:19:42.720Z,23.03
2018-03-15T10:22:10.233Z,23.37
2018-03-15T10:24:37.675Z,23.53
2018-03-15T10:27:05.153Z,24.63
2018-03-15T10:29:32.667Z,25.00
2018-03-15T10:32:00.918Z,23.13
2018-03-15T10:34:28.422Z,21.00
2018-03-15T10:36:55.912Z,28.40
2018-03-15T10:39:24.315Z,21.70
2018-03-15T10:41:51.787Z,22.10
2018-03-15T10:44:19.259Z,19.83
2018-03-15T10:46:47.504Z,22.33
2018-03-15T10:49:14.992Z,24.10
2018-03-15T10:51:43.251Z,19.43
2018-03-15T10:54:10.785Z,22.93
2018-03-15T10:56:38.276Z,24.23
2018-03-15T10:59:07.551Z,21.33
2018-03-15T11:01:40.776Z,26.03
2018-03-15T11:04:11.780Z,25.50
2018-03-15T11:06:51.206Z,20.97
2018-03-15T11:09:22.287Z,23.80
2018-03-15T11:11:51.162Z,21.20
2018-03-15T11:14:18.644Z,25.97
2018-03-15T11:16:46.884Z,23.50
2018-03-15T11:19:14.368Z,21.60
2018-03-15T11:21:42.624Z,22.73
2018-03-15T11:24:10.341Z,19.80
2018-03-15T11:26:37.831Z,20.80
2018-03-15T11:29:05.311Z,25.53
2018-03-15T11:31:32.778Z,24.80
2018-03-15T11:34:01.022Z,23.90
2018-03-15T11:36:29.161Z,25.63
2018-03-15T11:38:56.671Z,24.33
2018-03-15T11:41:24.151Z,25.20
2018-03-15T11:43:51.623Z,23.13
2018-03-15T11:46:19.095Z,22.43
2018-03-15T11:48:46.645Z,25.63
2018-03-15T11:51:14.135Z,20.43
2018-03-15T11:53:41.612Z,23.70
2018-03-15T11:56:09.136Z,19.50
2018-03-15T11:58:37.336Z,22.80
2018-03-15T12:01:04.824Z,20.40
2018-03-15T12:03:33.280Z,18.67
2018-03-15T12:06:00.747Z,18.90
2018-03-15T12:08:28.986Z,18.30
2018-03-15T12:10:56.471Z,21.50
2018-03-15T12:13:23.945Z,30.43
2018-03-15T12:15:52.195Z,20.53
2018-03-15T12:18:20.488Z,19.63
2018-03-15T12:20:47.956Z,18.90
2018-03-15T12:23:16.208Z,21.47
2018-03-15T12:25:44.496Z,28.30
2018-03-15T12:28:11.966Z,24.70
2018-03-15T12:30:40.222Z,29.23
2018-03-15T12:33:07.716Z,24.47
2018-03-15T12:35:35.957Z,27.43
2018-03-15T12:38:03.443Z,20.93
2018-03-15T12:40:31.687Z,20.50
2018-03-15T12:42:59.159Z,22.63
2018-03-15T12:45:27.403Z,20.60
2018-03-15T12:47:54.884Z,24.37
2018-03-15T12:50:22.373Z,22.00
2018-03-15T12:52:49.900Z,22.93
2018-03-15T12:55:17.372Z,21.40
2018-03-15T12:57:45.610Z,24.53
2018-03-15T13:00:13.093Z,23.60
2018-03-15T13:02:41.343Z,19.63
2018-03-15T13:05:08.835Z,21.60
2018-03-15T13:07:37.133Z,21.83
2018-03-15T13:10:04.632Z,20.07
2018-03-15T13:12:32.101Z,24.90
2018-03-15T13:14:59.566Z,23.40
2018-03-15T13:17:27.041Z,25.33
2018-03-15T13:19:55.278Z,25.87
2018-03-15T13:22:22.759Z,22.70
2018-03-15T13:24:51.043Z,19.43
2018-03-15T13:27:19.268Z,21.00
2018-03-15T13:29:46.744Z,22.00
2018-03-15T13:32:14.224Z,21.03
2018-03-15T13:34:42.451Z,20.63
2018-03-15T13:37:09.935Z,24.30
2018-03-15T13:39:37.411Z,19.97
2018-03-15T13:42:05.661Z,21.13
2018-03-15T13:44:33.124Z,21.33
2018-03-15T13:47:00.607Z,22.33
2018-03-15T13:49:28.854Z,20.70
2018-03-15T13:51:56.362Z,29.27
2018-03-15T13:54:23.814Z,24.50
2018-03-15T13:56:52.042Z,24.20
2018-03-15T13:59:19.523Z,19.47
2018-03-15T14:01:47.780Z,26.43
2018-03-15T14:04:15.247Z,26.57
2018-03-15T14:06:42.733Z,19.50
2018-03-15T14:09:10.221Z,20.07
2018-03-15T14:11:37.690Z,24.60
2018-03-15T14:14:05.175Z,20.87
2018-03-15T14:16:32.721Z,22.77
2018-03-15T14:19:00.259Z,21.80
2018-03-15T14:21:27.938Z,18.47
2018-03-15T14:23:56.281Z,22.20
2018-03-15T14:26:23.896Z,24.30
2018-03-15T14:28:52.203Z,21.27
2018-03-15T14:31:19.678Z,20.80
2018-03-15T14:33:47.258Z,20.13
2018-03-15T14:36:14.826Z,26.33
2018-03-15T14:38:42.464Z,19.30
2018-03-15T14:41:10.052Z,20.33
2018-03-15T14:43:37.624Z,22.90
2018-03-15T14:46:06.868Z,21.57
2018-03-15T14:48:34.411Z,19.90
2018-03-15T14:51:02.294Z,22.53
2018-03-15T14:53:29.911Z,22.10
2018-03-15T14:55:58.367Z,22.13
2018-03-15T14:58:26.700Z,19.83
2018-03-15T15:00:54.352Z,27.47
2018-03-15T15:03:22.168Z,20.00
2018-03-15T15:05:49.815Z,23.30
2018-03-15T15:08:17.567Z,23.43
2018-03-15T15:10:45.725Z,23.37
2018-03-15T15:13:13.456Z,24.43
2018-03-15T15:15:42.254Z,24.03
2018-03-15T15:18:10.144Z,23.67
2018-03-15T15:20:38.364Z,22.47
2018-03-15T15:23:06.949Z,23.97
2018-03-15T15:25:35.509Z,25.53
2018-03-15T15:28:04.069Z,25.67
2018-03-15T15:30:31.875Z,22.97
2018-03-15T15:33:00.385Z,24.10
2018-03-15T15:35:28.157Z,22.30
2018-03-15T15:37:55.977Z,26.40
2018-03-15T15:40:25.064Z,25.63
2018-03-15T15:42:53.518Z,22.70
2018-03-15T15:45:21.293Z,21.67
2018-03-15T15:47:49.032Z,22.70
2018-03-15T15:50:16.794Z,25.20
2018-03-15T15:52:44.484Z,24.77
2018-03-15T15:55:12.086Z,27.93
2018-03-15T15:57:39.599Z,28.93
2018-03-15T16:00:07.243Z,24.10
2018-03-15T16:02:34.723Z,37.00
2018-03-15T16:05:02.186Z,25.13
2018-03-15T16:07:29.677Z,28.10
2018-03-15T16:09:57.137Z,28.03
2018-03-15T16:12:24.619Z,22.60
2018-03-15T16:14:52.134Z,23.60
2018-03-15T16:17:19.599Z,24.63
2018-03-15T16:19:47.064Z,29.30
2018-03-15T16:22:14.559Z,28.00
2018-03-15T16:24:42.034Z,25.23
2018-03-15T16:27:09.507Z,23.50
2018-03-15T16:29:37.114Z,25.43
2018-03-15T16:32:05.355Z,24.47
2018-03-15T16:34:32.847Z,24.23
2018-03-15T16:37:01.132Z,26.00
2018-03-15T16:39:29.367Z,23.07
2018-03-15T16:41:56.883Z,25.40
2018-03-15T16:44:24.354Z,24.57
2018-03-15T16:46:51.830Z,32.17
2018-03-15T16:49:19.290Z,28.60
2018-03-15T16:51:48.260Z,28.70
2018-03-15T16:54:15.726Z,29.23
2018-03-15T16:56:43.207Z,24.50
2018-03-15T16:59:10.680Z,26.00
2018-03-15T17:01:38.975Z,24.93
2018-03-15T17:04:06.444Z,25.80
2018-03-15T17:06:33.955Z,30.20
2018-03-15T17:09:01.445Z,28.37
2018-03-15T17:11:29.671Z,26.20
2018-03-15T17:13:57.136Z,30.13
2018-03-15T17:16:24.692Z,28.60
2018-03-15T17:18:52.176Z,26.00
2018-03-15T17:21:20.420Z,28.93
2018-03-15T17:23:48.261Z,26.70
2018-03-15T17:26:16.410Z,24.87
2018-03-15T17:28:45.816Z,29.53
2018-03-15T17:31:13.322Z,39.10
2018-03-15T17:33:40.793Z,37.57
2018-03-15T17:36:08.290Z,34.33
2018-03-15T17:38:35.770Z,29.43
2018-03-15T17:41:03.268Z,38.90
2018-03-15T17:43:30.748Z,26.70
2018-03-15T17:45:58.966Z,24.03
2018-03-15T17:48:26.459Z,27.17
2018-03-15T17:50:53.959Z,33.30
2018-03-15T17:53:21.451Z,28.67
2018-03-15T17:55:49.285Z,25.70
2018-03-15T17:58:16.780Z,24.20
2018-03-15T18:00:44.248Z,26.73
2018-03-15T18:03:11.735Z,31.53
2018-03-15T18:05:39.996Z,30.60
2018-03-15T18:08:08.256Z,34.03
2018-03-15T18:10:35.758Z,36.20
2018-03-15T18:13:03.242Z,31.60
2018-03-15T18:15:30.702Z,27.73
2018-03-15T18:17:58.183Z,29.67
2018-03-15T18:20:25.684Z,24.90
2018-03-15T18:22:53.140Z,26.47
2018-03-15T18:25:20.683Z,22.40
2018-03-15T18:27:48.917Z,26.30
2018-03-15T18:30:16.382Z,31.63
2018-03-15T18:32:43.960Z,24.20
2018-03-15T18:35:12.211Z,24.57
2018-03-15T18:37:40.571Z,27.40
2018-03-15T18:40:08.115Z,26.27
2018-03-15T18:42:35.603Z,21.60
2018-03-15T18:45:03.054Z,26.10
2018-03-15T18:47:30.585Z,21.60
2018-03-15T18:49:58.776Z,22.27
2018-03-15T18:52:26.238Z,26.27
2018-03-15T18:54:53.736Z,17.47
2018-03-15T18:57:21.973Z,16.13
2018-03-15T18:59:49.454Z,16.00
2018-03-15T19:02:16.968Z,15.70
2018-03-15T19:04:44.425Z,16.13
2018-03-15T19:07:11.923Z,14.53
2018-03-15T19:09:39.450Z,15.57
2018-03-15T19:12:07.682Z,14.10
2018-03-15T19:14:35.956Z,16.43
2018-03-15T19:17:04.187Z,14.90
2018-03-15T19:19:31.655Z,15.90
2018-03-15T19:21:59.172Z,13.90
2018-03-15T19:24:26.637Z,15.10
2018-03-15T19:26:54.096Z,18.63
2018-03-15T19:29:21.592Z,14.63
2018-03-15T19:31:49.864Z,18.30
2018-03-15T19:34:17.329Z,19.80
2018-03-15T19:36:44.828Z,20.03
2018-03-15T19:39:12.288Z,16.37
2018-03-15T19:41:39.752Z,19.80
2018-03-15T19:44:07.240Z,20.03
2018-03-15T19:46:34.728Z,19.37
2018-03-15T19:49:02.967Z,24.17
2018-03-15T19:51:31.944Z,23.70
2018-03-15T19:53:59.443Z,21.43
2018-03-15T19:56:26.912Z,23.80
2018-03-15T19:58:55.150Z,21.37
2018-03-15T20:01:22.647Z,24.70
2018-03-15T20:03:50.912Z,18.73
2018-03-15T20:06:19.156Z,27.57
2018-03-15T20:08:46.642Z,24.07
2018-03-15T20:11:14.142Z,22.70
2018-03-15T20:13:41.613Z,24.00
2018-03-15T20:16:09.122Z,20.20
2018-03-15T20:18:37.358Z,27.07
2018-03-15T20:21:05.607Z,25.77
2018-03-15T20:23:38.815Z,28.90
2018-03-15T20:26:07.072Z,24.80
2018-03-15T20:28:40.131Z,28.13
2018-03-15T20:31:08.374Z,24.80
2018-03-15T20:33:41.595Z,29.90
2018-03-15T20:36:09.839Z,30.20
2018-03-15T20:38:37.307Z,32.37
2018-03-15T20:41:10.527Z,28.43
2018-03-15T20:43:38.867Z,29.80
2018-03-15T20:46:11.976Z,28.23
2018-03-15T20:48:45.791Z,31.03
2018-03-15T20:51:14.039Z,35.30
2018-03-15T20:53:41.499Z,39.23
2018-03-15T20:56:08.971Z,32.10
2018-03-15T20:58:36.455Z,32.97
2018-03-15T21:01:03.941Z,42.37
2018-03-15T21:03:31.403Z,45.37
2018-03-15T21:05:58.905Z,38.10
2018-03-15T21:08:27.126Z,43.13
2018-03-15T21:10:54.584Z,41.97
2018-03-15T21:13:22.085Z,43.83
2018-03-15T21:15:49.571Z,45.90
2018-03-15T21:18:17.048Z,39.07
2018-03-15T21:20:45.359Z,39.00
2018-03-15T21:23:12.896Z,46.33
2018-03-15T21:25:40.369Z,40.73
2018-03-15T21:28:07.841Z,39.17
2018-03-15T21:30:35.306Z,35.93
2018-03-15T21:33:02.779Z,33.23
2018-03-15T21:35:31.044Z,34.40
2018-03-15T21:37:59.290Z,37.23
2018-03-15T21:40:27.542Z,39.13
2018-03-15T21:42:55.029Z,33.17
2018-03-15T21:45:22.503Z,35.90
2018-03-15T21:47:51.025Z,38.57
2018-03-15T21:50:18.518Z,35.80
2018-03-15T21:52:46.883Z,45.83
2018-03-15T21:55:18.202Z,36.10
2018-03-15T21:57:45.811Z,50.50
2018-03-15T22:00:13.372Z,40.23
2018-03-15T22:05:15.668Z,45.93
2018-03-15T22:07:43.154Z,46.87
2018-03-15T22:10:10.650Z,59.33
2018-03-15T22:12:38.115Z,53.93
2018-03-15T22:15:06.220Z,53.77
2018-03-15T22:17:33.691Z,51.87
2018-03-15T22:20:01.920Z,55.67
2018-03-15T22:22:29.407Z,62.50
2018-03-15T22:24:56.867Z,63.90
2018-03-15T22:27:25.095Z,52.40
2018-03-15T22:29:52.570Z,50.30
2018-03-15T22:32:20.039Z,56.93
2018-03-15T22:34:49.012Z,51.57
2018-03-15T22:37:16.491Z,60.87
2018-03-15T22:39:43.966Z,57.53
2018-03-15T22:42:12.203Z,57.30
2018-03-15T22:44:39.695Z,53.17
2018-03-15T22:47:07.940Z,50.77
2018-03-15T22:49:35.428Z,51.17
2018-03-15T22:52:02.890Z,54.83
2018-03-15T22:54:31.149Z,59.47
2018-03-15T22:56:58.707Z,49.43
2018-03-15T22:59:26.182Z,61.53
2018-03-15T23:01:54.415Z,48.40
2018-03-15T23:04:21.875Z,54.20
2018-03-15T23:06:49.396Z,61.10
2018-03-15T23:09:16.886Z,53.33
2018-03-15T23:11:44.860Z,50.10
2018-03-15T23:14:12.339Z,57.87
2018-03-15T23:16:40.615Z,59.60
2018-03-15T23:19:08.082Z,55.27
2018-03-15T23:21:36.346Z,60.90
2018-03-15T23:24:05.587Z,67.93
2018-03-15T23:26:33.178Z,52.30
2018-03-15T23:29:01.376Z,55.07
2018-03-15T23:31:28.834Z,49.03
2018-03-15T23:33:56.304Z,53.23
2018-03-15T23:36:24.582Z,58.47
2018-03-15T23:38:52.854Z,48.80
2018-03-15T23:41:21.110Z,54.17
2018-03-15T23:43:48.598Z,50.77
2018-03-15T23:46:16.832Z,58.87
2018-03-15T23:48:45.459Z,61.37
2018-03-15T23:51:12.931Z,50.90
2018-03-15T23:53:40.408Z,66.73
2018-03-15T23:56:07.878Z,56.67
2018-03-15T23:58:35.380Z,64.23
